createdAt,value
2022-10-19T00:02:13.457Z,3.05
2022-10-19T00:05:55.825Z,3.17
2022-10-19T00:09:37.799Z,3.00
2022-10-19T00:13:19.880Z,3.25
2022-10-19T00:17:01.855Z,2.90
2022-10-19T00:20:43.821Z,2.63
2022-10-19T00:24:25.752Z,2.55
2022-10-19T00:28:07.754Z,3.35
2022-10-19T00:31:51.003Z,2.90
2022-10-19T00:35:32.955Z,2.88
2022-10-19T00:39:17.764Z,2.97
2022-10-19T00:42:59.747Z,2.83
2022-10-19T00:46:44.479Z,2.65
2022-10-19T00:50:26.473Z,2.72
2022-10-19T00:54:09.665Z,2.72
2022-10-19T01:01:38.918Z,3.07
2022-10-19T01:05:21.406Z,2.40
2022-10-19T01:09:03.609Z,3.10
2022-10-19T01:12:57.495Z,3.25
2022-10-19T01:16:58.295Z,2.75
2022-10-19T01:20:58.709Z,3.03
2022-10-19T01:25:27.549Z,3.00
2022-10-19T01:29:31.140Z,3.37
2022-10-19T01:33:16.022Z,3.15
2022-10-19T01:37:33.856Z,2.97
2022-10-19T01:41:21.738Z,3.35
2022-10-19T01:45:10.496Z,3.28
2022-10-19T01:49:03.000Z,3.30
2022-10-19T01:52:44.950Z,3.60
2022-10-19T01:56:28.460Z,3.08
2022-10-19T02:00:12.580Z,4.07
2022-10-19T02:03:55.376Z,3.17
2022-10-19T02:07:39.033Z,3.13
2022-10-19T02:11:22.552Z,3.53
2022-10-19T02:15:14.731Z,3.60
2022-10-19T02:18:59.407Z,3.75
2022-10-19T02:22:41.541Z,3.15
2022-10-19T02:26:23.598Z,3.80
2022-10-19T02:30:06.972Z,3.65
2022-10-19T02:33:49.040Z,3.13
2022-10-19T02:37:31.145Z,3.40
2022-10-19T02:41:29.552Z,3.80
2022-10-19T02:45:19.723Z,2.90
2022-10-19T02:49:03.931Z,3.17
2022-10-19T02:52:45.878Z,3.60
2022-10-19T02:56:27.875Z,3.20
2022-10-19T03:00:10.719Z,3.13
2022-10-19T03:03:52.853Z,3.40
2022-10-19T03:07:35.182Z,2.92
2022-10-19T03:11:17.332Z,2.72
2022-10-19T03:14:59.263Z,3.17
2022-10-19T03:18:41.442Z,3.05
2022-10-19T03:22:23.340Z,3.25
2022-10-19T03:26:08.763Z,2.80
2022-10-19T03:29:53.405Z,3.30
2022-10-19T03:33:35.329Z,3.50
2022-10-19T03:37:17.243Z,3.28
2022-10-19T03:40:59.183Z,2.90
2022-10-19T03:44:42.444Z,2.83
2022-10-19T03:48:24.450Z,2.83
2022-10-19T03:52:06.544Z,3.22
2022-10-19T03:55:48.429Z,3.13
2022-10-19T03:59:30.474Z,3.00
2022-10-19T04:03:12.417Z,2.63
2022-10-19T04:06:54.407Z,3.30
2022-10-19T04:10:36.325Z,2.85
2022-10-19T04:14:31.728Z,2.97
2022-10-19T04:18:15.338Z,2.88
2022-10-19T04:21:57.608Z,3.03
2022-10-19T04:25:39.609Z,2.85
2022-10-19T04:29:25.107Z,2.90
2022-10-19T04:33:10.126Z,2.90
2022-10-19T04:36:53.356Z,2.70
2022-10-19T04:40:36.580Z,3.03
2022-10-19T04:44:18.606Z,2.58
2022-10-19T04:48:01.004Z,2.50
2022-10-19T04:51:42.921Z,2.75
2022-10-19T04:55:24.834Z,2.80
2022-10-19T04:59:06.919Z,2.95
2022-10-19T05:02:48.991Z,2.70
2022-10-19T05:06:32.137Z,2.70
2022-10-19T05:10:14.229Z,2.83
2022-10-19T05:13:57.263Z,2.97
2022-10-19T05:17:41.313Z,2.60
2022-10-19T05:21:23.641Z,3.20
2022-10-19T05:25:07.062Z,2.72
2022-10-19T05:28:51.063Z,3.00
2022-10-19T05:32:33.119Z,2.70
2022-10-19T05:36:25.609Z,3.10
2022-10-19T05:40:08.334Z,2.95
2022-10-19T05:43:55.676Z,2.97
2022-10-19T05:47:37.802Z,3.00
2022-10-19T05:51:21.586Z,3.20
2022-10-19T05:55:03.894Z,3.42
2022-10-19T05:58:46.202Z,3.13
2022-10-19T06:02:28.212Z,3.10
2022-10-19T06:06:10.371Z,3.67
2022-10-19T06:09:52.333Z,3.92
2022-10-19T06:13:34.392Z,3.58
2022-10-19T06:17:16.483Z,3.80
2022-10-19T06:21:12.553Z,3.47
2022-10-19T06:24:54.628Z,3.70
2022-10-19T06:28:39.197Z,3.85
2022-10-19T06:32:21.518Z,3.90
2022-10-19T06:36:12.375Z,4.03
2022-10-19T06:39:54.412Z,3.70
2022-10-19T06:43:36.686Z,4.07
2022-10-19T06:47:18.649Z,4.13
2022-10-19T06:51:05.898Z,4.47
2022-10-19T06:54:48.080Z,3.83
2022-10-19T06:58:31.015Z,4.40
2022-10-19T07:02:13.012Z,4.32
2022-10-19T07:06:03.321Z,5.25
2022-10-19T07:09:45.379Z,4.43
2022-10-19T07:13:28.560Z,5.22
2022-10-19T07:17:11.762Z,4.80
2022-10-19T07:21:02.208Z,5.43
2022-10-19T07:24:44.227Z,5.72
2022-10-19T07:28:26.364Z,5.47
2022-10-19T07:32:08.415Z,5.78
2022-10-19T07:35:50.574Z,5.93
2022-10-19T07:39:32.618Z,5.90
2022-10-19T07:43:14.655Z,6.03
2022-10-19T07:46:56.563Z,5.35
2022-10-19T07:50:38.476Z,5.72
2022-10-19T07:54:21.415Z,5.35
2022-10-19T07:58:03.323Z,6.32
2022-10-19T08:01:45.374Z,5.88
2022-10-19T08:05:27.492Z,4.93
2022-10-19T08:09:11.318Z,4.82
2022-10-19T08:12:57.617Z,4.32
2022-10-19T08:16:41.773Z,4.80
2022-10-19T08:20:23.684Z,4.43
2022-10-19T08:24:07.038Z,5.13
2022-10-19T08:27:48.938Z,4.70
2022-10-19T08:31:30.874Z,4.40
2022-10-19T08:35:12.871Z,4.40
2022-10-19T08:38:54.827Z,4.15
2022-10-19T08:43:02.454Z,4.18
2022-10-19T08:47:23.236Z,4.65
2022-10-19T08:51:06.548Z,4.43
2022-10-19T08:54:54.613Z,4.35
2022-10-19T09:02:45.930Z,4.60
2022-10-19T09:06:51.643Z,4.25
2022-10-19T09:10:40.511Z,4.30
2022-10-19T09:14:28.199Z,4.22
2022-10-19T09:18:27.943Z,4.00
2022-10-19T09:22:20.733Z,4.50
2022-10-19T09:26:05.636Z,5.30
2022-10-19T09:30:03.867Z,3.63
2022-10-19T09:33:52.197Z,4.05
2022-10-19T09:37:40.528Z,3.60
2022-10-19T09:41:24.409Z,4.20
2022-10-19T09:45:23.827Z,3.28
2022-10-19T09:49:06.338Z,4.00
2022-10-19T09:53:12.163Z,3.65
2022-10-19T09:56:56.092Z,3.35
2022-10-19T10:00:43.660Z,3.30
2022-10-19T10:04:25.630Z,3.45
2022-10-19T10:08:15.762Z,3.42
2022-10-19T10:12:02.655Z,3.95
2022-10-19T10:15:49.111Z,3.55
2022-10-19T10:19:33.372Z,3.35
2022-10-19T10:23:24.788Z,3.30
2022-10-19T10:27:06.875Z,3.55
2022-10-19T10:31:05.007Z,3.55
2022-10-19T10:34:54.826Z,3.35
2022-10-19T10:38:51.884Z,3.95
2022-10-19T10:42:41.061Z,3.58
2022-10-19T10:46:27.055Z,3.67
2022-10-19T10:50:30.742Z,3.80
2022-10-19T10:54:33.861Z,3.75
2022-10-19T10:58:25.459Z,3.63
2022-10-19T11:06:14.698Z,3.65
2022-10-19T11:10:06.841Z,4.22
2022-10-19T11:14:08.504Z,3.55
2022-10-19T11:18:20.211Z,3.70
2022-10-19T11:22:16.961Z,3.67
2022-10-19T11:26:01.941Z,3.20
2022-10-19T11:29:50.905Z,3.85
2022-10-19T11:37:45.518Z,3.53
2022-10-19T11:41:45.143Z,3.40
2022-10-19T11:45:50.708Z,2.85
2022-10-19T11:49:43.416Z,3.22
2022-10-19T11:53:29.684Z,3.00
2022-10-19T11:57:24.061Z,3.03
2022-10-19T12:01:17.390Z,3.10
2022-10-19T12:05:01.515Z,2.80
2022-10-19T12:09:12.278Z,3.00
2022-10-19T12:13:01.191Z,2.97
2022-10-19T12:16:47.708Z,3.08
2022-10-19T12:20:43.286Z,3.90
2022-10-19T12:24:26.652Z,2.80
2022-10-19T12:28:18.869Z,2.85
2022-10-19T12:32:03.188Z,3.22
2022-10-19T12:36:00.688Z,2.55
2022-10-19T12:39:49.974Z,3.03
2022-10-19T12:43:54.505Z,3.05
2022-10-19T12:47:36.714Z,2.88
2022-10-19T12:51:19.020Z,2.95
2022-10-19T12:55:16.122Z,2.88
2022-10-19T12:59:01.600Z,2.60
2022-10-19T13:02:44.436Z,2.92
2022-10-19T13:06:26.359Z,3.03
2022-10-19T13:10:21.054Z,2.85
2022-10-19T13:14:27.636Z,2.78
2022-10-19T13:18:14.092Z,3.10
2022-10-19T13:22:01.937Z,2.90
2022-10-19T13:25:44.338Z,2.75
2022-10-19T13:29:27.818Z,2.80
2022-10-19T13:33:24.957Z,2.80
2022-10-19T13:37:13.333Z,5.00
2022-10-19T13:40:55.188Z,2.55
2022-10-19T13:44:38.945Z,2.50
2022-10-19T13:48:52.811Z,2.40
2022-10-19T13:52:40.695Z,2.45
2022-10-19T13:56:31.109Z,2.75
2022-10-19T14:00:18.079Z,2.63
2022-10-19T14:04:21.827Z,2.40
2022-10-19T14:08:15.717Z,2.92
2022-10-19T14:12:08.278Z,2.35
2022-10-19T14:15:55.182Z,2.33
2022-10-19T14:19:46.447Z,2.40
2022-10-19T14:23:34.587Z,2.22
2022-10-19T14:27:21.438Z,2.83
2022-10-19T14:31:09.691Z,2.30
2022-10-19T14:34:52.371Z,2.45
2022-10-19T14:38:37.281Z,2.08
2022-10-19T14:42:19.202Z,2.60
2022-10-19T14:46:07.265Z,2.47
2022-10-19T14:49:50.387Z,2.53
2022-10-19T14:53:52.889Z,2.67
2022-10-19T14:57:38.171Z,2.85
2022-10-19T15:01:20.913Z,3.03
2022-10-19T15:05:05.600Z,2.67
2022-10-19T15:08:51.939Z,2.45
2022-10-19T15:12:41.953Z,2.60
2022-10-19T15:16:32.978Z,2.65
2022-10-19T15:20:43.966Z,2.65
2022-10-19T15:24:37.066Z,2.80
2022-10-19T15:28:21.740Z,3.17
2022-10-19T15:32:21.598Z,3.03
2022-10-19T15:36:09.480Z,3.10
2022-10-19T15:39:52.589Z,2.90
2022-10-19T15:43:43.074Z,3.20
2022-10-19T15:47:25.391Z,2.80
2022-10-19T15:51:25.846Z,3.10
2022-10-19T15:55:07.847Z,5.70
2022-10-19T15:58:51.556Z,3.22
2022-10-19T16:02:33.472Z,3.60
2022-10-19T16:06:17.226Z,5.65
2022-10-19T16:09:59.430Z,3.55
2022-10-19T16:13:41.768Z,3.40
2022-10-19T16:17:24.080Z,3.53
2022-10-19T16:21:06.229Z,3.53
2022-10-19T16:24:48.135Z,3.25
2022-10-19T16:28:30.080Z,3.20
2022-10-19T16:32:12.016Z,3.53
2022-10-19T16:35:53.893Z,4.28
2022-10-19T16:39:35.810Z,3.72
2022-10-19T16:43:17.757Z,3.28
2022-10-19T16:47:00.016Z,4.00
2022-10-19T16:54:24.082Z,3.13
2022-10-19T16:58:06.726Z,11.43
2022-10-19T17:01:48.838Z,3.83
2022-10-19T17:05:30.911Z,3.35
2022-10-19T17:13:14.791Z,3.70
2022-10-19T17:16:56.713Z,3.80
2022-10-19T17:20:38.659Z,4.03
2022-10-19T17:24:22.262Z,4.07
2022-10-19T17:28:04.682Z,5.18
2022-10-19T17:31:47.030Z,4.07
2022-10-19T17:35:29.071Z,4.38
2022-10-19T17:39:19.685Z,9.20
2022-10-19T17:43:01.541Z,4.63
2022-10-19T17:46:43.789Z,4.40
2022-10-19T17:50:25.720Z,4.53
2022-10-19T17:54:11.548Z,4.38
2022-10-19T17:57:53.641Z,4.50
2022-10-19T18:01:36.355Z,4.95
2022-10-19T18:05:18.290Z,6.45
2022-10-19T18:09:02.360Z,4.80
2022-10-19T18:12:45.303Z,5.10
2022-10-19T18:16:35.394Z,5.60
2022-10-19T18:20:17.413Z,6.28
2022-10-19T18:24:01.797Z,5.47
2022-10-19T18:27:43.766Z,4.78
2022-10-19T18:31:29.568Z,5.05
2022-10-19T18:35:11.958Z,6.07
2022-10-19T18:38:55.973Z,5.00
2022-10-19T18:42:38.018Z,5.15
2022-10-19T18:46:22.099Z,5.57
2022-10-19T18:50:04.220Z,5.43
2022-10-19T18:53:47.446Z,5.00
2022-10-19T18:57:31.707Z,5.43
2022-10-19T19:01:26.766Z,5.50
2022-10-19T19:05:09.124Z,5.80
2022-10-19T19:08:51.435Z,6.43
2022-10-19T19:12:33.789Z,6.18
2022-10-19T19:16:16.100Z,5.78
2022-10-19T19:19:57.972Z,6.53
2022-10-19T19:23:39.867Z,6.22
2022-10-19T19:27:22.889Z,6.13
2022-10-19T19:31:06.326Z,7.60
2022-10-19T19:34:52.424Z,8.50
2022-10-19T19:38:36.734Z,8.00
2022-10-19T19:42:18.809Z,9.07
2022-10-19T19:46:06.240Z,7.40
2022-10-19T19:49:52.085Z,7.25
2022-10-19T19:53:34.036Z,7.10
2022-10-19T19:57:16.002Z,6.95
2022-10-19T20:00:57.967Z,8.00
2022-10-19T20:04:39.980Z,12.85
2022-10-19T20:08:22.072Z,7.97
2022-10-19T20:12:04.053Z,6.88
2022-10-19T20:15:46.003Z,7.47
2022-10-19T20:19:27.974Z,8.23
2022-10-19T20:23:09.911Z,8.27
2022-10-19T20:26:51.968Z,7.82
2022-10-19T20:30:33.921Z,8.20
2022-10-19T20:34:17.690Z,7.95
2022-10-19T20:38:03.855Z,8.27
2022-10-19T20:41:45.754Z,9.07
2022-10-19T20:45:28.677Z,8.88
2022-10-19T20:49:12.154Z,8.50
2022-10-19T20:52:54.040Z,10.70
2022-10-19T20:56:37.559Z,9.60
2022-10-19T21:00:19.624Z,8.85
2022-10-19T21:04:04.645Z,10.23
2022-10-19T21:07:46.594Z,9.65
2022-10-19T21:11:32.367Z,9.57
2022-10-19T21:15:14.301Z,9.68
2022-10-19T21:18:57.314Z,9.98
2022-10-19T21:22:41.416Z,9.70
2022-10-19T21:26:26.395Z,9.52
2022-10-19T21:30:08.893Z,9.82
2022-10-19T21:33:51.837Z,9.63
2022-10-19T21:37:34.208Z,10.55
2022-10-19T21:41:22.247Z,10.38
2022-10-19T21:45:30.316Z,11.25
2022-10-19T21:49:12.916Z,10.63
2022-10-19T21:52:55.033Z,10.70
2022-10-19T21:56:37.203Z,10.70
2022-10-19T22:00:19.203Z,10.02
2022-10-19T22:04:03.701Z,10.25
2022-10-19T22:07:45.646Z,11.07
2022-10-19T22:11:28.086Z,10.40
2022-10-19T22:15:10.549Z,9.80
2022-10-19T22:18:53.258Z,10.32
2022-10-19T22:22:35.417Z,10.50
2022-10-19T22:26:24.031Z,9.65
2022-10-19T22:30:06.445Z,10.70
2022-10-19T22:33:48.885Z,10.23
2022-10-19T22:37:30.829Z,10.77
2022-10-19T22:41:12.789Z,9.82
2022-10-19T22:44:55.590Z,10.43
2022-10-19T22:48:37.557Z,10.25
2022-10-19T22:52:19.512Z,10.80
2022-10-19T22:56:01.873Z,11.20
2022-10-19T22:59:44.012Z,11.43
2022-10-19T23:03:25.941Z,10.50
2022-10-19T23:07:07.942Z,9.75
2022-10-19T23:10:49.891Z,10.75
2022-10-19T23:14:32.081Z,10.75
2022-10-19T23:18:14.279Z,10.23
2022-10-19T23:21:56.522Z,9.73
2022-10-19T23:25:38.427Z,10.18
2022-10-19T23:29:20.395Z,9.45
2022-10-19T23:33:02.470Z,9.73
2022-10-19T23:36:44.409Z,9.07
2022-10-19T23:40:26.321Z,8.65
2022-10-19T23:44:09.430Z,9.10
2022-10-19T23:47:51.344Z,8.40
2022-10-19T23:51:33.382Z,8.40
2022-10-19T23:55:15.370Z,8.48
2022-10-19T23:58:57.342Z,8.68
